Flight Track Log - Related Links

Times and Time Zones

All times are in EDT time to prevent confusion due to time zone crossing. See the N488CP flight status page for this flight to view local times or setup timezone preferences in your user account.

Time Position Orientation Groundspeed Altitude Reporting Facility
EDT Latitude Longitude Course Direction KTS MPH feet Rate Location/Type
Wed 11:28:17 PM 48.0947 -122.1481 173° South 206 237 4,400  Level Seattle Center
Wed 11:29:30 PM 48.0272 -122.1361 173° South 205 236 9,100 3,422 Climbing Seattle Center
Wed 11:30:25 PM 47.9636 -122.1219 172° South 266 306 11,700 1,456 Climbing Seattle Center
Wed 11:31:46 PM 47.8597 -122.1108 176° South 313 360 12,400 1,225 Climbing Seattle Center
Wed 11:32:47 PM 47.7572 -122.1022 177° South 317 365 14,600 2,016 Climbing Seattle Center
Wed 11:33:48 PM 47.6647 -122.0919 176° South 334 384 16,500 1,869 Climbing Seattle Center
Wed 11:34:49 PM 47.5647 -122.0817 176° South 344 396 18,400 1,869 Climbing Seattle Center
Wed 11:35:50 PM 47.4681 -122.0708 176° South 347 399 20,300 1,869 Climbing Seattle Center
Wed 11:36:51 PM 47.3731 -122.0403 168° South 351 404 22,200 1,918 Climbing Seattle Center
Wed 11:37:52 PM 47.2794 -122.0075 167° South 350 403 24,200 1,918 Climbing Seattle Center
Wed 11:38:53 PM 47.1872 -121.9764 167° South 343 395 26,100 1,869 Climbing Seattle Center
Wed 11:39:54 PM 47.0978 -121.9458 167° South 335 386 28,000 1,869 Climbing Seattle Center
Wed 11:40:55 PM 47.0108 -121.9161 167° South 325 374 29,900 1,869 Climbing Seattle Center
Wed 11:41:56 PM 46.9261 -121.8886 168° South 316 364 31,800 1,770 Climbing Seattle Center
Wed 11:42:57 PM 46.8450 -121.8619 167° South 304 350 33,500 1,820 Climbing Seattle Center
Wed 11:43:58 PM 46.7486 -121.8292 167° South 299 344 35,500 1,426 Climbing Seattle Center
Wed 11:44:59 PM 46.6686 -121.8019 167° South 299 344 36,400 787 Climbing Seattle Center
Wed 11:46:00 PM 46.5822 -121.7733 167° South 319 367 37,100 984 Climbing Seattle Center
Wed 11:47:01 PM 46.4958 -121.7436 167° South 324 373 38,400 1,230 Climbing Seattle Center
Wed 11:48:02 PM 46.4089 -121.7161 168° South 323 372 39,600 1,180 Climbing Seattle Center
Wed 11:49:03 PM 46.3264 -121.6881 167° South 312 359 40,800 689 Climbing Seattle Center
Wed 11:50:04 PM 46.2419 -121.6619 168° South 313 360 41,000 98 Climbing Seattle Center
Wed 11:51:05 PM 46.1489 -121.6297 167° South 337 388 41,000  Level Seattle Center
Wed 11:52:06 PM 46.0519 -121.5986 167° South 355 409 41,000  Level Seattle Center
Wed 11:53:07 PM 45.9328 -121.5583 167° South 367 422 41,000  Level Seattle Center
Wed 11:54:08 PM 45.8319 -121.5253 167° South 373 429 41,000  Level Seattle Center
Wed 11:55:09 PM 45.7306 -121.4933 168° South 376 433 41,000  Level Seattle Center
Wed 11:56:10 PM 45.6283 -121.4611 168° South 377 434 41,000  Level Seattle Center
Wed 11:57:11 PM 45.5247 -121.4264 167° South 383 441 41,000  Level Seattle Center
Wed 11:58:12 PM 45.4208 -121.3947 168° South 385 443 41,000  Level Seattle Center
Wed 11:59:13 PM 45.3172 -121.3603 167° South 386 444 41,000  Level Seattle Center
Thu 12:00:14 AM 45.2122 -121.3278 168° South 388 447 41,000  Level Seattle Center
Thu 12:01:15 AM 45.1075 -121.2944 167° South 388 447 41,000  Level Seattle Center
Thu 12:02:16 AM 45.0033 -121.2608 167° South 387 445 41,000  Level Seattle Center
Thu 12:03:17 AM 44.8783 -121.2217 167° South 384 442 41,000  Level Seattle Center
Thu 12:04:19 AM 44.7731 -121.1892 168° South 386 444 41,000  Level Seattle Center
Thu 12:05:20 AM 44.6706 -121.1581 168° South 381 438 41,000  Level Seattle Center
Thu 12:06:20 AM 44.5794 -121.1294 167° South 381 438 41,000  Level Seattle Center
Thu 12:07:21 AM 44.4536 -121.0900 167° South 386 444 41,000  Level Seattle Center
Thu 12:08:22 AM 44.3594 -121.0600 167° South 384 442 41,000  Level Seattle Center
Thu 12:09:23 AM 44.2519 -121.0247 167° South 399 459 41,000  Level Seattle Center
Thu 12:10:24 AM 44.1458 -120.9944 168° South 393 452 41,000  Level Seattle Center
Thu 12:11:25 AM 44.0422 -120.9644 168° South 385 443 41,000  Level Seattle Center
Thu 12:12:26 AM 43.9372 -120.9328 168° South 387 445 41,000  Level Seattle Center
Thu 12:13:27 AM 43.8314 -120.8972 166° South 390 449 41,000  Level Seattle Center
Thu 12:14:28 AM 43.7044 -120.8764 173° South 389 448 41,000  Level Seattle Center
Thu 12:15:29 AM 43.6050 -120.9011 190° South 371 427 41,000  Level Seattle Center
Thu 12:16:30 AM 43.5125 -120.9208 189° South 371 427 41,000  Level Seattle Center
Thu 12:17:31 AM 43.4108 -120.9403 188° South 370 426 41,000  Level Seattle Center
Thu 12:18:32 AM 43.3094 -120.9592 188° South 368 423 41,000  Level Seattle Center
Thu 12:19:33 AM 43.1872 -120.9828 188° South 369 425 41,000  Level Seattle Center
Thu 12:20:34 AM 43.0853 -121.0022 188° South 369 425 41,000  Level Seattle Center
Thu 12:21:35 AM 42.9808 -121.0208 187° South 376 433 41,000  Level Seattle Center
Thu 12:22:36 AM 42.8786 -121.0408 188° South 373 429 41,000  Level Seattle Center
Thu 12:23:37 AM 42.7756 -121.0600 188° South 373 429 41,000  Level Seattle Center
Thu 12:24:38 AM 42.6736 -121.0800 188° South 370 426 41,000  Level Seattle Center
Thu 12:25:39 AM 42.5700 -121.0992 188° South 373 429 41,000  Level Seattle Center
Thu 12:26:40 AM 42.4667 -121.1181 188° South 372 428 41,000  Level Seattle Center
Thu 12:27:41 AM 42.3639 -121.1367 188° South 373 429 41,000  Level Seattle Center
Thu 12:28:43 AM 42.2606 -121.1556 188° South 372 428 41,000  Level Seattle Center
Thu 12:29:44 AM 42.1558 -121.1769 189° South 380 437 41,000  Level Seattle Center
Thu 12:30:45 AM 42.0511 -121.1947 187° South 373 429 41,000  Level Seattle Center
Thu 12:31:46 AM 41.9481 -121.2125 187° South 373 429 41,000  Level Seattle Center
Thu 12:32:47 AM 41.8439 -121.2317 188° South 378 435 41,000  Level Seattle Center
Thu 12:33:48 AM 41.7183 -121.2547 188° South 378 435 41,000  Level Seattle Center
Thu 12:34:49 AM 41.6136 -121.2744 188° South 379 436 41,000  Level Seattle Center
Thu 12:35:50 AM 41.5097 -121.2886 186° South 375 432 41,000 -295 Level Seattle Center
Thu 12:36:51 AM 41.4083 -121.3014 185° South 367 422 40,400 -679 Descending Seattle Center
Thu 12:37:36 AM 41.3450 -121.2981 178° South 369 425 39,800 -1,528 Descending Oakland Center
Thu 12:38:37 AM 41.2192 -121.2750 172° South 379 436 37,700 -1,770 Descending Oakland Center
Thu 12:39:38 AM 41.1147 -121.2589 173° South 377 434 36,200 -1,366 Descending Oakland Center
Thu 12:40:40 AM 41.0147 -121.2772 188° South 378 435 34,900 -1,366 Descending Oakland Center
Thu 12:41:41 AM 40.9081 -121.2933 187° South 380 437 33,400 -1,475 Descending Oakland Center
Thu 12:42:42 AM 40.7964 -121.3100 186° South 388 447 31,900 -1,377 Descending Oakland Center
Thu 12:43:43 AM 40.6867 -121.3283 187° South 396 456 30,600 -1,475 Descending Oakland Center
Thu 12:44:44 AM 40.5747 -121.3464 187° South 403 464 28,900 -1,574 Descending Oakland Center
Thu 12:45:45 AM 40.4672 -121.3639 187° South 400 460 27,400 -1,475 Descending Oakland Center
Thu 12:46:46 AM 40.3600 -121.3817 187° South 388 447 25,900 -1,659 Descending Oakland Center
Thu 12:47:48 AM 40.2314 -121.4019 187° South 381 438 24,000 -1,951 Descending Oakland Center
Thu 12:48:49 AM 40.1242 -121.4183 187° South 385 443 21,900 -1,869 Descending Oakland Center
Thu 12:49:50 AM 40.0242 -121.4347 187° South 364 419 20,200 -1,574 Descending Oakland Center
Thu 12:50:51 AM 39.9219 -121.4503 187° South 367 422 18,700 -1,475 Descending Oakland Center
Thu 12:51:52 AM 39.8194 -121.4661 187° South 369 425 17,200 -1,574 Descending Oakland Center
Thu 12:52:53 AM 39.7194 -121.4811 187° South 362 417 15,500 -1,672 Descending Oakland Center
Thu 12:53:54 AM 39.6225 -121.4958 187° South 353 406 13,800 -1,707 Descending Oakland Center
Thu 12:54:56 AM 39.5258 -121.5111 187° South 350 403 12,000 -1,902 Descending Oakland Center
Thu 12:55:57 AM 39.4258 -121.5272 187° South 329 379 9,900 -2,016 Descending Oakland Center
Thu 12:56:58 AM 39.3456 -121.5397 187° South 297 342 7,900 -1,623 Descending Oakland Center
Thu 12:57:59 AM 39.2728 -121.5508 187° South 269 310 6,600 -1,131 Descending Oakland Center
Thu 12:59:00 AM 39.2000 -121.5622 187° South 266 306 5,600 -714 Descending Oakland Center
Thu 01:00:47 AM 39.0833 -121.5833 188° South 207 238 4,600 -862 Descending Northern Cal TRACON
Thu 01:01:47 AM 39.0167 -121.5833 180° South 213 245 3,200 -800 Descending Northern Cal TRACON
Thu 01:02:47 AM 38.9667 -121.6000 195° South 189 217 3,000 -100 Descending Northern Cal TRACON
Thu 01:03:47 AM 38.9333 -121.6500 229° Southwest 198 228 3,000  Level Northern Cal TRACON
Thu 01:04:41 AM 38.9000 -121.6167 142° Southeast 147 169 3,000 -53 Level Northern Cal TRACON
Thu 01:05:41 AM 38.8667 -121.6000 159° South 141 162 2,900 -450 Descending Northern Cal TRACON
Thu 01:06:41 AM 38.8167 -121.6000 180° South 149 171 2,100 -750 Descending Northern Cal TRACON
Thu 01:07:41 AM 38.7833 -121.6000 180° South 126 145 1,400 -650 Descending Northern Cal TRACON
Thu 01:08:41 AM 38.7500 -121.6000 180° South 127 146 800 -600 Descending Northern Cal TRACON
Thu 01:09:41 AM 38.7167 -121.6000 180° South 121 139 200 -600 Descending Northern Cal TRACON
Thu 01:11:00 AM 38.6954 -121.5908 180° South  Level Estimated
Thu 01:18:00 AM 38.6954 -121.5908 180° South  Level Estimated

Login

Don't have an account? Register now (free) for customized features, flight alerts, and more!